Time;durP1;ratioP1;P1;durP2;ratioP2;P2;SDS_P1;SDS_P2;PMS_P1;PMS_P2;Temp;Humidity;BMP_temperature;BMP_pressure;BME280_temperature;BME280_humidity;BME280_pressure;Samples;Min_cycle;Max_cycle;Signal;HPM_P1;HPM_P2
2022/10/18 00:00:55;;;;;;;6.93;4.57;;;14.70;99.90;;;;;;5014700;28;20426;-87
2022/10/18 00:03:21;;;;;;;7.40;4.93;;;14.60;99.90;;;;;;5014216;28;20691;-86
2022/10/18 00:05:48;;;;;;;6.30;4.53;;;14.60;99.90;;;;;;5014570;28;20235;-86
2022/10/18 00:08:14;;;;;;;10.50;4.83;;;14.60;99.90;;;;;;5014584;28;20562;-85
2022/10/18 00:10:40;;;;;;;6.60;3.83;;;14.60;99.90;;;;;;5014509;28;20438;-85
2022/10/18 00:13:05;;;;;;;12.20;4.63;;;14.60;99.90;;;;;;5014643;28;20906;-87
2022/10/18 00:15:31;;;;;;;6.57;3.63;;;14.60;99.90;;;;;;5014373;28;20256;-88
2022/10/18 00:17:56;;;;;;;9.00;5.83;;;14.50;99.90;;;;;;5014461;28;20257;-87
2022/10/18 00:20:22;;;;;;;7.30;4.47;;;14.60;99.90;;;;;;5014034;28;20185;-86
2022/10/18 00:22:48;;;;;;;6.40;4.40;;;14.60;99.90;;;;;;5014308;28;20178;-88
2022/10/18 00:25:13;;;;;;;7.33;4.40;;;14.50;99.90;;;;;;5014391;28;20678;-87
2022/10/18 00:27:39;;;;;;;8.87;4.83;;;14.50;99.90;;;;;;5014195;28;20217;-87
2022/10/18 00:30:05;;;;;;;7.60;5.23;;;14.40;99.90;;;;;;5014332;28;20255;-87
2022/10/18 00:32:34;;;;;;;12.70;4.80;;;14.40;99.90;;;;;;5031156;28;20223;-85
2022/10/18 00:34:59;;;;;;;7.30;4.93;;;14.40;99.90;;;;;;5033492;28;20410;-87
2022/10/18 00:37:25;;;;;;;6.00;4.13;;;14.40;99.90;;;;;;5033781;28;20422;-86
2022/10/18 00:39:50;;;;;;;8.03;4.77;;;14.50;99.90;;;;;;5033316;28;20247;-87
2022/10/18 00:42:18;;;;;;;7.13;4.03;;;14.40;99.90;;;;;;5033323;28;20180;-86
2022/10/18 00:44:46;;;;;;;9.33;4.70;;;14.40;99.90;;;;;;5033689;28;20579;-87
2022/10/18 00:47:15;;;;;;;9.20;4.60;;;14.30;99.90;;;;;;5033718;28;20464;-86
2022/10/18 00:49:48;;;;;;;7.20;4.83;;;14.30;99.90;;;;;;5033366;28;20806;-86
2022/10/18 00:52:25;;;;;;;8.93;4.90;;;14.30;99.90;;;;;;5033558;28;20439;-87
2022/10/18 00:54:51;;;;;;;8.00;4.80;;;14.20;99.90;;;;;;5033604;28;20422;-87
2022/10/18 00:57:17;;;;;;;9.37;5.93;;;14.20;99.90;;;;;;5033421;28;20421;-87
2022/10/18 00:59:43;;;;;;;6.23;4.27;;;14.10;99.90;;;;;;5033617;28;20960;-85
2022/10/18 01:02:09;;;;;;;7.93;4.77;;;14.10;99.90;;;;;;5033140;28;20184;-86
2022/10/18 01:04:35;;;;;;;6.90;4.90;;;14.10;99.90;;;;;;5033140;28;20415;-86
2022/10/18 01:07:16;;;;;;;10.60;4.77;;;14.10;99.90;;;;;;5033409;28;20484;-87
2022/10/18 01:10:02;;;;;;;9.10;4.93;;;14.10;99.90;;;;;;5033429;28;20416;-87
2022/10/18 01:12:46;;;;;;;7.50;4.30;;;14.10;99.90;;;;;;5033318;28;20427;-87
2022/10/18 01:15:35;;;;;;;9.23;5.00;;;14.10;99.90;;;;;;5031918;28;20455;-87
2022/10/18 01:18:25;;;;;;;10.57;6.17;;;14.10;99.90;;;;;;5033269;28;20416;-86
2022/10/18 01:21:02;;;;;;;10.30;6.70;;;14.10;99.90;;;;;;5033261;28;20421;-87
2022/10/18 01:23:46;;;;;;;9.20;5.10;;;14.00;99.90;;;;;;5033272;28;20410;-87
2022/10/18 01:26:32;;;;;;;7.63;4.80;;;14.00;99.90;;;;;;5033232;28;20415;-84
2022/10/18 01:29:35;;;;;;;8.27;4.23;;;13.90;99.90;;;;;;5033870;28;20431;-86
2022/10/18 01:32:09;;;;;;;9.40;6.03;;;13.90;99.90;;;;;;5034098;28;20407;-86
2022/10/18 01:34:37;;;;;;;9.87;5.40;;;13.90;99.90;;;;;;5032706;28;20423;-86
2022/10/18 01:37:08;;;;;;;11.87;6.00;;;13.80;99.90;;;;;;5032972;28;20498;-86
2022/10/18 01:39:38;;;;;;;9.27;5.77;;;13.80;99.90;;;;;;5032976;28;20841;-86
2022/10/18 01:42:08;;;;;;;13.17;6.47;;;13.80;99.90;;;;;;5033144;28;20425;-87
2022/10/18 01:44:36;;;;;;;8.70;5.70;;;13.70;99.90;;;;;;5032975;28;20896;-86
2022/10/18 01:47:03;;;;;;;11.50;6.07;;;13.70;99.90;;;;;;5032843;28;20463;-85
2022/10/18 01:49:32;;;;;;;15.33;7.47;;;13.70;99.90;;;;;;5032553;28;20430;-84
2022/10/18 01:51:58;;;;;;;11.20;5.80;;;13.70;99.90;;;;;;5034254;28;20415;-84
2022/10/18 01:54:34;;;;;;;10.60;6.00;;;13.80;99.90;;;;;;5036913;28;20910;-87
2022/10/18 01:57:17;;;;;;;12.10;6.70;;;13.80;99.90;;;;;;5036960;28;20168;-86
2022/10/18 02:00:03;;;;;;;11.50;6.40;;;13.80;99.90;;;;;;5037045;28;20433;-86
2022/10/18 02:02:53;;;;;;;12.07;6.73;;;13.80;99.90;;;;;;5036931;28;20418;-87
2022/10/18 02:05:29;;;;;;;10.40;6.40;;;13.80;99.90;;;;;;5036505;28;20440;-86
2022/10/18 02:08:24;;;;;;;9.90;6.90;;;13.90;99.90;;;;;;5036687;28;20475;-86
2022/10/18 02:10:56;;;;;;;8.07;6.40;;;13.90;99.90;;;;;;5036581;28;20411;-85
2022/10/18 02:13:24;;;;;;;12.93;7.53;;;13.80;99.90;;;;;;5036318;28;20986;-84
2022/10/18 02:15:56;;;;;;;11.83;8.10;;;13.80;99.90;;;;;;5036641;28;20423;-87
2022/10/18 02:18:30;;;;;;;11.93;6.43;;;13.80;99.90;;;;;;5036142;28;20806;-87
2022/10/18 02:20:57;;;;;;;9.47;6.23;;;13.80;99.90;;;;;;5035308;28;20452;-85
2022/10/18 02:23:25;;;;;;;12.03;7.50;;;13.70;99.90;;;;;;5035182;28;20820;-86
2022/10/18 02:25:51;;;;;;;8.70;5.53;;;13.70;99.90;;;;;;5036431;28;20407;-86
2022/10/18 02:28:17;;;;;;;16.77;7.20;;;13.70;99.90;;;;;;5034210;28;20880;-85
2022/10/18 02:31:20;;;;;;;12.33;7.00;;;13.70;99.90;;;;;;5018434;28;20427;-85
2022/10/18 02:34:10;;;;;;;9.77;6.10;;;13.70;99.90;;;;;;5015075;28;20170;-84
2022/10/18 02:36:43;;;;;;;7.70;5.70;;;13.80;99.90;;;;;;5014952;28;20742;-87
2022/10/18 02:39:20;;;;;;;9.43;5.80;;;13.80;99.90;;;;;;5014999;28;20518;-88
2022/10/18 02:41:46;;;;;;;11.47;7.20;;;13.90;99.90;;;;;;5016216;28;20897;-88
2022/10/18 02:44:11;;;;;;;8.73;6.50;;;13.90;99.90;;;;;;5016557;28;20962;-87
2022/10/18 02:46:38;;;;;;;10.87;7.13;;;13.90;99.90;;;;;;5027988;28;20195;-85
2022/10/18 02:49:04;;;;;;;9.90;7.50;;;13.90;99.90;;;;;;5035769;28;20184;-86
2022/10/18 02:51:30;;;;;;;8.80;5.97;;;13.90;99.90;;;;;;5036238;28;20431;-88
2022/10/18 02:53:55;;;;;;;11.37;7.30;;;13.90;99.90;;;;;;5035774;28;20184;-86
2022/10/18 02:56:21;;;;;;;9.20;6.77;;;13.90;99.90;;;;;;5034356;28;20768;-85
2022/10/18 02:58:46;;;;;;;13.00;8.30;;;13.90;99.90;;;;;;5034511;28;20185;-86
2022/10/18 03:01:12;;;;;;;11.40;6.60;;;13.90;99.90;;;;;;5034162;28;20172;-87
2022/10/18 03:03:37;;;;;;;8.73;6.00;;;13.80;99.90;;;;;;5032285;28;20215;-88
2022/10/18 03:06:03;;;;;;;11.30;8.73;;;13.70;99.90;;;;;;5035206;28;20220;-88
2022/10/18 03:08:28;;;;;;;8.90;6.10;;;13.70;99.90;;;;;;5035592;28;20365;-87
2022/10/18 03:10:54;;;;;;;9.30;6.60;;;13.60;99.90;;;;;;5043719;28;20227;-84
2022/10/18 03:13:19;;;;;;;10.90;7.70;;;13.50;99.90;;;;;;5044461;28;20188;-87
2022/10/18 03:15:46;;;;;;;15.73;8.17;;;13.50;99.90;;;;;;5053072;28;20200;-86
2022/10/18 03:18:12;;;;;;;11.73;6.93;;;13.50;99.90;;;;;;5048839;28;20172;-86
2022/10/18 03:20:38;;;;;;;10.37;6.70;;;13.50;99.90;;;;;;5037716;28;20465;-84
2022/10/18 03:23:05;;;;;;;10.23;8.00;;;13.60;99.90;;;;;;5035653;28;20686;-85
2022/10/18 03:25:31;;;;;;;15.73;9.10;;;13.60;99.90;;;;;;5035435;28;20417;-84
2022/10/18 03:27:57;;;;;;;10.73;7.37;;;13.70;99.90;;;;;;5035108;28;20481;-86
2022/10/18 03:30:22;;;;;;;13.40;8.80;;;13.80;99.90;;;;;;5035285;28;20926;-88
2022/10/18 03:32:48;;;;;;;15.23;7.10;;;13.80;99.90;;;;;;5034866;28;20184;-86
2022/10/18 03:35:13;;;;;;;13.07;7.80;;;13.90;99.90;;;;;;5035234;28;20179;-85
2022/10/18 03:37:39;;;;;;;14.70;8.87;;;13.90;99.90;;;;;;5035039;28;20185;-87
2022/10/18 03:40:05;;;;;;;14.00;9.13;;;13.90;99.90;;;;;;5035016;28;20238;-85
2022/10/18 03:42:31;;;;;;;14.23;9.60;;;13.90;99.90;;;;;;5034915;28;20176;-85
2022/10/18 03:44:56;;;;;;;20.70;10.00;;;13.90;99.90;;;;;;5034872;28;20412;-85
2022/10/18 03:47:21;;;;;;;12.87;7.80;;;13.90;99.90;;;;;;5034896;28;20236;-88
2022/10/18 03:49:47;;;;;;;14.70;9.47;;;13.90;99.90;;;;;;5033327;28;20168;-85
2022/10/18 03:52:12;;;;;;;11.47;7.80;;;13.90;99.90;;;;;;5034732;28;20259;-84
2022/10/18 03:54:38;;;;;;;12.40;9.27;;;13.90;99.90;;;;;;5034722;28;20184;-85
2022/10/18 03:57:06;;;;;;;13.47;8.80;;;13.80;99.90;;;;;;5034792;28;20176;-89
2022/10/18 03:59:32;;;;;;;17.70;8.90;;;13.80;99.90;;;;;;5034615;28;20177;-85
2022/10/18 04:01:57;;;;;;;18.97;10.50;;;13.80;99.90;;;;;;5034678;28;20465;-88
2022/10/18 04:04:23;;;;;;;15.40;9.30;;;13.70;99.90;;;;;;5033192;28;20190;-87
2022/10/18 04:06:48;;;;;;;14.60;8.03;;;13.70;99.90;;;;;;5034580;28;20168;-88
2022/10/18 04:09:23;;;;;;;16.10;8.50;;;13.60;99.90;;;;;;5034717;28;20182;-87
2022/10/18 04:11:49;;;;;;;16.77;7.93;;;13.60;99.90;;;;;;5034678;28;20178;-88
2022/10/18 04:14:15;;;;;;;13.97;9.20;;;13.50;99.90;;;;;;5032659;28;20492;-85
2022/10/18 04:16:43;;;;;;;11.20;6.83;;;13.40;99.90;;;;;;5034279;28;20452;-87
2022/10/18 04:19:09;;;;;;;12.17;8.27;;;13.40;99.90;;;;;;5033927;28;20624;-86
2022/10/18 04:21:34;;;;;;;14.67;9.87;;;13.30;99.90;;;;;;5033477;28;20541;-87
2022/10/18 04:24:00;;;;;;;12.17;8.43;;;13.30;99.90;;;;;;5035056;28;20177;-87
2022/10/18 04:26:25;;;;;;;18.10;8.80;;;13.30;99.90;;;;;;5034235;28;20185;-86
2022/10/18 04:28:51;;;;;;;14.40;8.13;;;13.30;99.90;;;;;;5033924;28;20237;-86
2022/10/18 04:31:16;;;;;;;15.13;8.17;;;13.20;99.90;;;;;;5034120;28;20166;-88
2022/10/18 04:33:45;;;;;;;19.87;8.97;;;13.20;99.90;;;;;;5033750;28;20265;-87
2022/10/18 04:36:10;;;;;;;12.03;8.00;;;13.20;99.90;;;;;;5032723;28;20309;-88
2022/10/18 04:38:36;;;;;;;12.50;7.83;;;13.10;99.90;;;;;;5032684;28;20482;-88
2022/10/18 04:41:01;;;;;;;18.40;8.20;;;13.10;99.90;;;;;;5032674;28;20648;-88
2022/10/18 04:43:27;;;;;;;14.90;9.10;;;13.10;99.90;;;;;;5034010;28;20261;-88
2022/10/18 04:45:52;;;;;;;13.00;9.00;;;13.00;99.90;;;;;;5032503;28;20172;-88
2022/10/18 04:48:18;;;;;;;12.93;7.60;;;13.00;99.90;;;;;;5033454;28;20210;-87
2022/10/18 04:50:47;;;;;;;12.47;8.77;;;12.90;99.90;;;;;;5033839;28;20587;-88
2022/10/18 04:53:13;;;;;;;13.23;7.73;;;12.90;99.90;;;;;;5033709;28;20615;-88
2022/10/18 04:55:42;;;;;;;12.50;7.70;;;12.90;99.90;;;;;;5032415;28;20423;-87
2022/10/18 04:58:07;;;;;;;11.17;7.57;;;12.90;99.90;;;;;;5032383;28;20958;-88
2022/10/18 05:00:33;;;;;;;14.30;7.73;;;12.90;99.90;;;;;;5032306;28;20422;-86
2022/10/18 05:02:58;;;;;;;19.07;8.07;;;12.90;99.90;;;;;;5032013;28;20652;-87
2022/10/18 05:05:23;;;;;;;14.67;9.17;;;12.90;99.90;;;;;;5032857;28;20182;-85
2022/10/18 05:07:49;;;;;;;15.50;7.97;;;13.00;99.90;;;;;;5033380;28;20218;-89
2022/10/18 05:10:15;;;;;;;16.23;8.93;;;12.90;99.90;;;;;;5033499;28;20172;-87
2022/10/18 05:12:42;;;;;;;14.27;8.37;;;12.90;99.90;;;;;;5033288;28;20196;-86
2022/10/18 05:15:08;;;;;;;17.23;10.07;;;13.00;99.90;;;;;;5031863;28;20589;-86
2022/10/18 05:17:34;;;;;;;15.50;8.97;;;12.90;99.90;;;;;;5031746;28;20453;-85
2022/10/18 05:19:59;;;;;;;12.90;7.63;;;12.90;99.90;;;;;;5031993;28;20419;-86
2022/10/18 05:22:25;;;;;;;12.40;7.33;;;12.90;99.90;;;;;;5031925;28;20179;-86
2022/10/18 05:24:50;;;;;;;12.23;7.33;;;12.90;99.90;;;;;;5033179;28;20179;-87
2022/10/18 05:27:16;;;;;;;12.83;8.27;;;12.90;99.90;;;;;;5032707;28;20299;-86
2022/10/18 05:29:41;;;;;;;14.07;7.63;;;12.90;99.90;;;;;;5033333;28;20627;-87
2022/10/18 05:32:07;;;;;;;12.73;8.00;;;12.90;99.90;;;;;;5031906;28;20188;-87
2022/10/18 05:34:32;;;;;;;13.93;8.00;;;12.90;99.90;;;;;;5031706;28;20167;-86
2022/10/18 05:36:59;;;;;;;16.13;9.23;;;12.90;99.90;;;;;;5029143;28;20179;-85
2022/10/18 05:39:24;;;;;;;16.80;9.87;;;12.90;99.90;;;;;;5033072;28;20170;-85
2022/10/18 05:41:50;;;;;;;14.87;8.40;;;13.00;99.90;;;;;;5032980;28;20417;-85
2022/10/18 05:44:15;;;;;;;15.70;8.90;;;13.00;99.90;;;;;;5032947;28;20189;-86
2022/10/18 05:46:41;;;;;;;19.07;10.17;;;12.90;99.90;;;;;;5032902;28;20586;-85
2022/10/18 05:49:06;;;;;;;15.57;9.50;;;12.90;99.90;;;;;;5031615;28;20186;-85
2022/10/18 05:51:32;;;;;;;16.70;8.10;;;12.90;99.90;;;;;;5032897;28;20631;-85
2022/10/18 05:53:57;;;;;;;13.60;7.30;;;12.90;99.90;;;;;;5032903;28;20179;-85
2022/10/18 05:56:26;;;;;;;16.83;8.80;;;12.80;99.90;;;;;;5032919;28;20167;-87
2022/10/18 05:58:51;;;;;;;14.10;8.47;;;12.90;99.90;;;;;;5033008;28;20177;-88
2022/10/18 06:01:17;;;;;;;21.33;9.53;;;12.90;99.90;;;;;;5032868;28;20423;-86
2022/10/18 06:03:43;;;;;;;15.20;8.50;;;13.00;99.90;;;;;;5032494;28;20176;-85
2022/10/18 06:06:11;;;;;;;15.00;9.07;;;13.00;99.90;;;;;;5032785;28;20177;-87
2022/10/18 06:08:38;;;;;;;12.53;8.40;;;13.00;99.90;;;;;;5031420;28;20208;-86
2022/10/18 06:11:11;;;;;;;13.33;7.70;;;13.00;99.90;;;;;;5032627;28;20424;-87
2022/10/18 06:13:41;;;;;;;17.13;8.80;;;13.10;99.90;;;;;;5032588;28;20504;-88
2022/10/18 06:16:07;;;;;;;13.57;8.83;;;13.00;99.90;;;;;;5031520;28;20771;-87
2022/10/18 06:18:33;;;;;;;14.43;8.00;;;12.90;99.90;;;;;;5031224;28;20435;-87
2022/10/18 06:20:58;;;;;;;12.73;7.90;;;12.80;99.90;;;;;;5032794;28;20419;-87
2022/10/18 06:23:27;;;;;;;15.40;7.93;;;12.80;99.90;;;;;;5031467;28;20209;-87
2022/10/18 06:25:56;;;;;;;15.87;7.27;;;12.70;99.90;;;;;;5032643;28;20171;-85
2022/10/18 06:28:22;;;;;;;15.60;7.33;;;12.70;99.90;;;;;;5031201;28;20512;-86
2022/10/18 06:30:47;;;;;;;14.27;8.10;;;12.60;99.90;;;;;;5032715;28;20930;-88
2022/10/18 06:33:13;;;;;;;15.90;9.03;;;12.60;99.90;;;;;;5032066;28;20175;-85
2022/10/18 06:35:38;;;;;;;12.70;8.33;;;12.60;99.90;;;;;;5031286;28;20225;-85
2022/10/18 06:38:05;;;;;;;15.37;7.20;;;12.60;99.90;;;;;;5033867;28;20179;-87
2022/10/18 06:40:36;;;;;;;12.37;7.97;;;12.60;99.90;;;;;;5034741;28;20171;-87
2022/10/18 06:43:08;;;;;;;12.63;7.23;;;12.70;99.90;;;;;;5036160;28;20425;-88
2022/10/18 06:45:33;;;;;;;11.60;6.93;;;12.80;99.90;;;;;;5035937;28;20411;-87
2022/10/18 06:47:59;;;;;;;11.07;7.67;;;12.90;99.90;;;;;;5034882;28;20469;-87
2022/10/18 06:50:24;;;;;;;10.67;7.20;;;12.90;99.90;;;;;;5034890;28;20631;-86
2022/10/18 06:52:51;;;;;;;13.33;8.97;;;13.00;99.90;;;;;;5034829;28;20176;-88
2022/10/18 06:55:17;;;;;;;21.10;9.30;;;13.00;99.90;;;;;;5036649;28;20518;-86
2022/10/18 06:57:43;;;;;;;14.20;9.27;;;13.10;99.90;;;;;;5036130;28;20429;-88
2022/10/18 07:00:09;;;;;;;15.50;8.70;;;13.10;99.90;;;;;;5035727;28;20250;-88
2022/10/18 07:02:36;;;;;;;12.87;8.13;;;13.10;99.90;;;;;;5035329;28;20642;-88
2022/10/18 07:05:02;;;;;;;16.07;9.60;;;13.20;99.90;;;;;;5035975;28;20409;-87
2022/10/18 07:07:30;;;;;;;20.00;10.37;;;13.20;99.90;;;;;;5035833;28;20476;-86
2022/10/18 07:09:55;;;;;;;21.17;10.93;;;13.30;99.90;;;;;;5034381;28;20272;-88
2022/10/18 07:12:21;;;;;;;16.37;10.60;;;13.30;99.90;;;;;;5035798;28;20506;-86
2022/10/18 07:14:47;;;;;;;15.40;9.87;;;13.30;99.90;;;;;;5035432;28;20242;-87
2022/10/18 07:17:13;;;;;;;15.77;8.43;;;13.30;99.90;;;;;;5035357;28;20622;-88
2022/10/18 07:19:38;;;;;;;18.63;10.77;;;13.40;99.90;;;;;;5034412;28;20170;-86
2022/10/18 07:22:04;;;;;;;19.37;11.07;;;14.10;99.90;;;;;;5034259;28;20660;-88
2022/10/18 07:24:29;;;;;;;17.63;9.23;;;13.70;99.90;;;;;;5035411;28;20585;-87
2022/10/18 07:26:55;;;;;;;21.37;10.70;;;13.60;99.90;;;;;;5035269;28;20725;-86
2022/10/18 07:29:21;;;;;;;17.67;9.50;;;13.50;99.90;;;;;;5035387;28;20227;-87
2022/10/18 07:31:46;;;;;;;18.97;9.13;;;13.50;99.90;;;;;;5034007;28;20283;-87
2022/10/18 07:34:13;;;;;;;23.37;11.07;;;13.50;99.90;;;;;;5035041;28;20635;-88
2022/10/18 07:36:39;;;;;;;17.77;11.30;;;13.50;99.90;;;;;;5035072;28;20204;-89
2022/10/18 07:39:05;;;;;;;16.17;8.40;;;13.60;99.90;;;;;;5034949;28;20415;-87
2022/10/18 07:41:33;;;;;;;13.93;7.90;;;13.70;99.90;;;;;;5034962;28;20421;-86
2022/10/18 07:44:00;;;;;;;23.17;8.10;;;13.70;99.90;;;;;;5035002;28;20188;-87
2022/10/18 07:46:26;;;;;;;19.37;8.83;;;13.70;99.90;;;;;;5035065;28;20472;-87
2022/10/18 07:48:51;;;;;;;22.07;9.10;;;13.70;99.90;;;;;;5033069;28;20998;-87
2022/10/18 07:51:19;;;;;;;15.17;8.70;;;13.70;99.90;;;;;;5033254;28;20176;-88
2022/10/18 07:53:45;;;;;;;19.83;9.40;;;13.70;99.90;;;;;;5034722;28;20451;-86
2022/10/18 07:56:15;;;;;;;17.67;7.67;;;13.80;99.90;;;;;;5034748;28;20447;-86
2022/10/18 07:58:44;;;;;;;20.70;11.17;;;13.80;99.90;;;;;;5034520;28;20867;-87
2022/10/18 08:01:11;;;;;;;19.27;10.30;;;13.80;99.90;;;;;;5034679;28;20946;-87
2022/10/18 08:03:40;;;;;;;16.57;9.90;;;13.90;99.90;;;;;;5034201;28;20771;-87
2022/10/18 08:06:08;;;;;;;14.00;7.57;;;13.90;99.90;;;;;;5034465;28;20427;-87
2022/10/18 08:08:35;;;;;;;13.90;8.97;;;14.00;99.90;;;;;;5033148;28;20482;-86
2022/10/18 08:11:03;;;;;;;14.80;8.27;;;14.00;99.90;;;;;;5033060;28;20448;-86
2022/10/18 08:13:29;;;;;;;16.27;8.73;;;14.10;99.90;;;;;;5034166;28;20461;-86
2022/10/18 08:16:03;;;;;;;17.60;9.20;;;14.10;99.90;;;;;;5034309;28;20410;-86
2022/10/18 08:18:29;;;;;;;18.73;8.43;;;14.10;99.90;;;;;;5032734;28;20442;-86
2022/10/18 08:20:54;;;;;;;12.40;7.63;;;14.20;99.90;;;;;;5034306;28;20415;-86
2022/10/18 08:23:20;;;;;;;9.87;6.80;;;14.20;99.90;;;;;;5032862;28;20431;-87
2022/10/18 08:25:46;;;;;;;11.03;6.67;;;14.20;99.90;;;;;;5032762;28;20686;-86
2022/10/18 08:28:12;;;;;;;16.17;6.80;;;14.20;99.90;;;;;;5032684;28;20228;-86
2022/10/18 08:30:38;;;;;;;13.53;6.27;;;14.20;99.90;;;;;;5032814;28;20176;-86
2022/10/18 08:33:04;;;;;;;18.30;8.37;;;14.20;99.90;;;;;;5033641;28;20959;-87
2022/10/18 08:35:30;;;;;;;11.90;7.17;;;14.30;99.90;;;;;;5032746;28;20416;-86
2022/10/18 08:37:56;;;;;;;11.27;6.90;;;14.40;99.90;;;;;;5033882;28;20923;-86
2022/10/18 08:40:21;;;;;;;11.50;7.27;;;14.40;99.90;;;;;;5033972;28;20425;-86
2022/10/18 08:43:06;;;;;;;15.10;7.40;;;14.50;99.90;;;;;;5032682;28;20636;-87
2022/10/18 08:45:36;;;;;;;14.00;8.10;;;14.60;99.90;;;;;;5033806;28;20207;-86
2022/10/18 08:48:04;;;;;;;12.67;6.70;;;14.60;99.90;;;;;;5031995;28;20465;-86
2022/10/18 08:50:35;;;;;;;13.57;8.33;;;14.60;99.90;;;;;;5033735;28;20432;-87
2022/10/18 08:53:39;;;;;;;15.43;6.37;;;14.50;99.90;;;;;;5032820;28;20914;-86
2022/10/18 08:56:20;;;;;;;13.47;7.03;;;14.70;99.90;;;;;;5029678;28;20453;-87
2022/10/18 08:58:45;;;;;;;10.03;6.13;;;14.70;99.90;;;;;;5032537;28;20521;-86
2022/10/18 09:01:19;;;;;;;12.00;7.07;;;14.80;99.90;;;;;;5031587;28;20506;-86
2022/10/18 09:03:53;;;;;;;13.67;6.97;;;14.90;99.90;;;;;;5033118;28;20260;-86
2022/10/18 09:06:30;;;;;;;13.10;7.70;;;15.00;99.90;;;;;;5033328;28;20407;-86
2022/10/18 09:09:21;;;;;;;10.33;6.00;;;14.90;99.90;;;;;;5033281;28;20464;-86
2022/10/18 09:12:30;;;;;;;12.33;6.93;;;14.90;99.90;;;;;;5033240;28;20410;-86
2022/10/18 09:15:01;;;;;;;13.23;6.60;;;14.80;99.90;;;;;;5033023;28;20615;-86
2022/10/18 09:17:43;;;;;;;18.17;6.97;;;14.80;99.90;;;;;;5032857;28;20493;-87
2022/10/18 09:20:20;;;;;;;14.77;7.60;;;14.70;99.90;;;;;;5033234;28;20426;-86
2022/10/18 09:23:24;;;;;;;11.60;7.13;;;14.60;99.90;;;;;;5033200;28;20407;-86
2022/10/18 09:26:05;;;;;;;12.63;5.63;;;14.60;99.90;;;;;;4995540;28;20978;-86
2022/10/18 09:29:12;;;;;;;11.57;7.67;;;14.80;99.90;;;;;;5032937;28;20825;-86
2022/10/18 09:31:51;;;;;;;8.53;5.87;;;15.50;99.90;;;;;;5033033;28;20485;-86
2022/10/18 09:34:25;;;;;;;10.00;5.83;;;16.80;99.90;;;;;;5031750;28;20941;-86
2022/10/18 09:36:52;;;;;;;12.97;6.90;;;18.90;91.80;;;;;;5031712;28;20518;-86
2022/10/18 09:39:24;;;;;;;16.03;5.07;;;20.90;1.00;;;;;;5032898;28;20491;-86
2022/10/18 09:41:57;;;;;;;8.17;5.23;;;20.70;90.30;;;;;;5032914;28;20413;-87
2022/10/18 09:44:35;;;;;;;7.80;4.57;;;21.90;1.00;;;;;;5032891;28;20955;-86
2022/10/18 09:47:09;;;;;;;9.20;5.23;;;22.50;1.00;;;;;;5032483;28;20413;-86
2022/10/18 09:50:00;;;;;;;7.93;4.70;;;22.80;99.90;;;;;;5032878;28;20426;-87
2022/10/18 09:52:33;;;;;;;6.80;4.67;;;23.50;99.90;;;;;;5023504;28;20428;-86
2022/10/18 09:55:04;;;;;;;8.27;4.50;;;23.10;99.90;;;;;;5032918;28;20475;-86
2022/10/18 09:57:48;;;;;;;7.67;4.93;;;22.70;1.00;;;;;;5032799;28;20776;-86
2022/10/18 10:00:28;;;;;;;6.30;4.90;;;23.30;99.90;;;;;;5032941;28;20409;-86
2022/10/18 10:02:54;;;;;;;7.20;4.63;;;24.00;99.90;;;;;;5032332;28;20494;-86
2022/10/18 10:05:19;;;;;;;7.60;5.00;;;23.50;99.90;;;;;;5032782;28;20416;-87
2022/10/18 10:07:47;;;;;;;4.80;4.30;;;23.70;99.90;;;;;;5032671;28;20232;-85
2022/10/18 10:10:23;;;;;;;6.63;4.50;;;24.40;99.90;;;;;;5032737;28;20167;-87
2022/10/18 10:13:21;;;;;;;6.97;3.87;;;24.70;99.90;;;;;;5033694;28;20921;-86
2022/10/18 10:15:59;;;;;;;6.33;4.10;;;24.80;99.90;;;;;;5036557;28;20483;-86
2022/10/18 10:18:29;;;;;;;5.47;4.43;;;24.80;99.90;;;;;;5034793;28;20472;-87
2022/10/18 10:20:59;;;;;;;4.77;3.23;;;25.10;99.90;;;;;;5036423;28;20421;-84
2022/10/18 10:23:31;;;;;;;5.90;3.40;;;24.40;99.90;;;;;;5036341;28;20421;-84
2022/10/18 10:26:19;;;;;;;6.20;3.07;;;23.50;99.90;;;;;;5036298;28;20822;-84
2022/10/18 10:28:47;;;;;;;9.10;1.80;;;22.00;99.90;;;;;;5036259;28;20409;-86
2022/10/18 10:31:28;;;;;;;7.67;2.67;;;20.60;1.00;;;;;;5036245;28;20412;-85
2022/10/18 10:34:18;;;;;;;9.33;2.03;;;20.00;1.00;;;;;;5035857;28;20416;-85
2022/10/18 10:36:49;;;;;;;3.50;1.97;;;19.80;99.90;;;;;;5036103;28;20408;-85
2022/10/18 10:39:19;;;;;;;3.83;2.00;;;19.80;1.00;;;;;;5036065;28;20429;-85
2022/10/18 10:41:57;;;;;;;6.60;2.20;;;19.30;1.00;;;;;;5034754;28;20504;-84
2022/10/18 10:44:25;;;;;;;4.23;2.03;;;18.90;1.00;;;;;;5034804;28;20447;-85
2022/10/18 10:46:51;;;;;;;4.87;2.00;;;18.80;75.40;;;;;;5035503;28;20408;-84
2022/10/18 10:49:29;;;;;;;3.57;0.70;;;18.70;99.90;;;;;;5035982;28;20416;-84
2022/10/18 10:52:01;;;;;;;3.87;2.10;;;18.70;99.90;;;;;;5035882;28;20924;-87
2022/10/18 10:54:29;;;;;;;4.57;1.13;;;18.70;1.00;;;;;;5034725;28;20491;-84
2022/10/18 10:57:02;;;;;;;3.63;0.90;;;18.90;99.90;;;;;;5035651;28;20815;-84
2022/10/18 10:59:37;;;;;;;4.50;1.00;;;19.00;14.00;;;;;;5035687;28;20427;-84
2022/10/18 11:02:17;;;;;;;4.13;1.23;;;18.80;99.90;;;;;;5035336;28;20418;-84
2022/10/18 11:04:45;;;;;;;3.37;1.43;;;18.40;1.00;;;;;;5035610;28;20412;-84
2022/10/18 11:07:41;;;;;;;4.50;2.40;;;18.30;99.90;;;;;;5035486;28;20430;-84
2022/10/18 11:10:09;;;;;;;6.70;3.10;;;18.30;1.00;;;;;;5035619;28;20412;-84
2022/10/18 11:13:06;;;;;;;6.20;2.63;;;18.50;99.90;;;;;;5035460;28;20427;-83
2022/10/18 11:15:40;;;;;;;6.17;2.23;;;19.50;99.90;;;;;;4995433;28;20479;-85
2022/10/18 11:18:42;;;;;;;7.10;1.90;;;20.30;1.00;;;;;;5034993;28;20549;-85
2022/10/18 11:21:16;;;;;;;5.33;2.00;;;19.50;99.90;;;;;;5032030;28;20936;-83
2022/10/18 11:23:43;;;;;;;4.77;2.13;;;18.40;99.90;;;;;;5034997;28;20484;-84
2022/10/18 11:26:11;;;;;;;4.27;2.37;;;18.10;1.00;;;;;;5034703;28;20401;-85
2022/10/18 11:29:18;;;;;;;6.33;2.20;;;18.20;1.00;;;;;;5035138;28;20441;-84
2022/10/18 11:31:52;;;;;;;3.67;2.07;;;18.30;1.00;;;;;;5034825;28;20412;-84
2022/10/18 11:34:48;;;;;;;5.83;2.60;;;18.70;99.90;;;;;;5035035;28;20416;-84
2022/10/18 11:37:29;;;;;;;5.43;2.00;;;18.90;1.00;;;;;;5034961;28;20463;-84
2022/10/18 11:40:32;;;;;;;9.33;2.80;;;19.50;1.00;;;;;;5034944;28;20918;-84
2022/10/18 11:43:18;;;;;;;4.87;1.70;;;21.00;1.00;;;;;;5034903;28;20412;-84
2022/10/18 11:45:56;;;;;;;8.17;3.20;;;21.10;99.90;;;;;;5034846;28;20409;-85
2022/10/18 11:48:39;;;;;;;4.83;2.20;;;19.70;6.40;;;;;;5034524;28;20413;-85
2022/10/18 11:51:32;;;;;;;5.77;2.47;;;18.50;99.90;;;;;;5034753;28;20455;-84
2022/10/18 11:54:10;;;;;;;7.60;3.00;;;17.80;99.90;;;;;;5034874;28;20413;-84
2022/10/18 11:56:46;;;;;;;6.63;2.40;;;17.10;1.00;;;;;;5034783;28;20434;-84
2022/10/18 11:59:26;;;;;;;5.00;2.17;;;16.90;1.00;;;;;;5034510;28;20478;-84
2022/10/18 12:02:16;;;;;;;4.20;1.60;;;16.60;1.00;;;;;;5034184;28;20409;-85
2022/10/18 12:04:50;;;;;;;7.47;1.60;;;17.60;27.30;;;;;;5034373;28;20414;-84
2022/10/18 12:07:20;;;;;;;3.77;1.30;;;19.20;99.90;;;;;;5034464;28;20411;-84
2022/10/18 12:09:48;;;;;;;3.87;1.17;;;19.30;1.00;;;;;;5034381;28;20405;-86
2022/10/18 12:12:20;;;;;;;4.27;1.13;;;18.80;99.90;;;;;;5033110;28;20488;-84
2022/10/18 12:14:51;;;;;;;4.77;1.50;;;19.60;99.90;;;;;;5034030;28;20478;-84
2022/10/18 12:17:29;;;;;;;3.17;0.90;;;18.90;99.90;;;;;;5033797;28;20547;-85
2022/10/18 12:19:59;;;;;;;7.23;2.10;;;18.60;90.80;;;;;;5034200;28;20429;-85
2022/10/18 12:22:46;;;;;;;6.00;0.80;;;18.40;1.00;;;;;;5034126;28;20467;-85
2022/10/18 12:25:13;;;;;;;5.73;1.20;;;18.10;99.90;;;;;;5034162;28;20981;-86
2022/10/18 12:27:53;;;;;;;4.00;0.87;;;17.60;1.00;;;;;;5034009;28;20417;-83
2022/10/18 12:30:41;;;;;;;3.80;1.50;;;17.20;99.90;;;;;;5034074;28;20844;-86
2022/10/18 12:33:16;;;;;;;5.90;1.97;;;16.90;1.00;;;;;;5033651;28;20415;-85
2022/10/18 12:35:55;;;;;;;5.30;1.80;;;16.90;1.00;;;;;;5033523;28;20935;-85
2022/10/18 12:38:26;;;;;;;10.10;1.90;;;16.80;99.90;;;;;;5033811;28;20478;-85
2022/10/18 12:40:53;;;;;;;5.00;2.23;;;16.60;99.90;;;;;;5033808;28;20958;-85
2022/10/18 12:43:35;;;;;;;6.00;1.70;;;16.60;99.90;;;;;;5033895;28;20415;-85
2022/10/18 12:46:03;;;;;;;7.10;1.73;;;16.50;1.00;;;;;;5033697;28;20953;-85
2022/10/18 12:48:41;;;;;;;4.10;1.03;;;16.80;1.00;;;;;;5033649;28;20772;-84
2022/10/18 12:51:19;;;;;;;3.43;0.77;;;16.90;51.40;;;;;;5033650;28;20436;-86
2022/10/18 12:53:59;;;;;;;6.03;1.00;;;16.90;99.90;;;;;;5033702;28;20417;-85
2022/10/18 12:56:33;;;;;;;6.00;2.03;;;16.60;1.00;;;;;;5033505;28;20416;-84
2022/10/18 12:59:13;;;;;;;3.40;1.40;;;16.40;1.00;;;;;;5033489;28;20518;-85
2022/10/18 13:01:54;;;;;;;5.13;1.77;;;16.40;99.90;;;;;;5033084;28;20444;-84